Time;durP1;ratioP1;P1;durP2;ratioP2;P2;SDS_P1;SDS_P2;PMS_P1;PMS_P2;Temp;Humidity;BMP_temperature;BMP_pressure;BME280_temperature;BME280_humidity;BME280_pressure;Samples;Min_cycle;Max_cycle;Signal;HPM_P1;HPM_P2
2023/09/04 00:01:24;;;;;;;5.28;4.07;;;;;;;16.98;100.00;100712.09;4787305;29;20035;-82
2023/09/04 00:03:49;;;;;;;4.10;3.70;;;;;;;16.93;100.00;100701.78;4787106;29;20118;-82
2023/09/04 00:06:15;;;;;;;4.47;4.00;;;;;;;17.01;100.00;100711.88;4787191;30;20051;-82
2023/09/04 00:08:40;;;;;;;4.40;3.85;;;;;;;17.02;100.00;100707.47;4787082;30;20035;-82
2023/09/04 00:11:05;;;;;;;4.53;3.40;;;;;;;16.94;100.00;100700.88;4770749;30;20446;-82
2023/09/04 00:13:31;;;;;;;6.88;4.30;;;;;;;16.98;100.00;100713.84;4787219;30;20066;-82
2023/09/04 00:15:56;;;;;;;5.95;3.60;;;;;;;16.83;100.00;100689.25;4786648;30;20118;-83
2023/09/04 00:18:22;;;;;;;3.60;3.30;;;;;;;16.32;100.00;100613.13;4787033;30;20393;-82
2023/09/04 00:20:48;;;;;;;4.05;3.22;;;;;;;16.57;100.00;100661.75;4786730;30;20501;-82
2023/09/04 00:23:13;;;;;;;7.53;3.88;;;;;;;16.83;100.00;100716.41;4786903;30;20118;-82
2023/09/04 00:25:39;;;;;;;4.40;3.72;;;;;;;16.57;100.00;100672.25;4786894;30;20055;-82
2023/09/04 00:28:05;;;;;;;4.20;3.53;;;;;;;16.66;100.00;100683.09;4786626;29;20490;-82
2023/09/04 00:30:30;;;;;;;3.83;3.42;;;;;;;16.52;100.00;100666.38;4786711;30;20114;-82
2023/09/04 00:32:56;;;;;;;5.25;3.40;;;;;;;16.68;100.00;100698.78;4786547;29;20027;-82
2023/09/04 00:35:21;;;;;;;4.72;3.72;;;;;;;16.74;100.00;100702.91;4786913;30;20046;-82
2023/09/04 00:37:47;;;;;;;5.20;3.45;;;;;;;16.36;100.00;100646.19;4770675;30;20037;-82
2023/09/04 00:40:13;;;;;;;4.07;3.20;;;;;;;16.40;100.00;100657.41;4786616;30;20070;-82
2023/09/04 00:42:38;;;;;;;3.58;3.28;;;;;;;16.43;100.00;100658.09;4786602;30;20032;-82
2023/09/04 00:45:05;;;;;;;3.92;3.42;;;;;;;16.50;100.00;100676.16;4786390;30;20035;-82
2023/09/04 00:47:31;;;;;;;3.33;3.03;;;;;;;16.59;100.00;100700.16;4786640;29;20084;-82
2023/09/04 00:49:57;;;;;;;4.25;3.67;;;;;;;16.46;100.00;100680.72;4786894;30;20484;-82
2023/09/04 00:52:24;;;;;;;5.30;3.67;;;;;;;16.63;100.00;100706.94;4786761;30;20032;-82
2023/09/04 00:54:50;;;;;;;4.53;3.60;;;;;;;16.75;100.00;100729.13;4786397;30;20424;-82
2023/09/04 00:57:15;;;;;;;3.78;3.15;;;;;;;16.39;100.00;100668.81;4786314;30;20035;-82
2023/09/04 00:59:41;;;;;;;6.10;3.65;;;;;;;16.67;100.00;100723.41;4786630;30;20031;-82
2023/09/04 01:02:07;;;;;;;6.13;3.63;;;;;;;16.33;100.00;100674.44;4786351;30;20055;-82
2023/09/04 01:04:32;;;;;;;3.22;2.92;;;;;;;16.47;100.00;100711.34;4786507;29;20051;-82
2023/09/04 01:06:58;;;;;;;4.07;3.42;;;;;;;16.43;100.00;100697.53;4786699;29;20516;-82
2023/09/04 01:09:24;;;;;;;6.72;3.65;;;;;;;16.39;100.00;100703.00;4786572;30;20094;-82
2023/09/04 01:12:09;;;;;;;7.43;3.58;;;;;;;16.43;100.00;100707.16;4786582;30;20123;-82
2023/09/04 01:14:35;;;;;;;3.53;3.00;;;;;;;16.01;100.00;100655.97;4769872;30;20059;-82
2023/09/04 01:17:01;;;;;;;4.03;3.40;;;;;;;16.21;100.00;100687.28;4787894;29;20043;-82
2023/09/04 01:19:27;;;;;;;4.25;3.78;;;;;;;16.01;100.00;100663.00;4790053;30;20432;-82
2023/09/04 01:21:52;;;;;;;7.28;3.50;;;;;;;15.88;100.00;100640.00;4789920;30;20088;-82
2023/09/04 01:24:17;;;;;;;5.95;3.50;;;;;;;15.93;100.00;100663.44;4789581;30;20057;-82
2023/09/04 01:26:51;;;;;;;4.22;3.63;;;;;;;15.86;100.00;100662.91;4789683;30;20096;-82
2023/09/04 01:29:26;;;;;;;4.70;3.42;;;;;;;15.52;100.00;100605.16;4789530;30;20048;-82
2023/09/04 01:31:58;;;;;;;4.53;3.47;;;;;;;15.92;100.00;100694.09;4790000;30;20039;-82
2023/09/04 01:34:30;;;;;;;3.50;3.20;;;;;;;15.90;100.00;100701.22;4789744;30;20042;-82
2023/09/04 01:36:57;;;;;;;4.68;3.50;;;;;;;15.35;100.00;100627.84;4789644;30;20046;-82
2023/09/04 01:39:25;;;;;;;3.53;3.17;;;;;;;15.53;100.00;100661.97;4789406;30;20039;-82
2023/09/04 01:41:50;;;;;;;4.18;3.50;;;;;;;15.54;100.00;100668.91;4789559;30;20058;-82
2023/09/04 01:44:16;;;;;;;4.25;3.85;;;;;;;15.50;100.00;100670.84;4789446;29;20462;-82
2023/09/04 01:46:41;;;;;;;5.15;3.95;;;;;;;15.63;100.00;100703.47;4773309;30;20552;-82
2023/09/04 01:49:09;;;;;;;3.67;3.35;;;;;;;15.55;100.00;100700.38;4789339;30;20066;-82
2023/09/04 01:51:35;;;;;;;3.92;3.53;;;;;;;15.59;100.00;100714.16;4773395;30;20054;-82
2023/09/04 01:54:00;;;;;;;4.43;3.72;;;;;;;15.58;100.00;100717.72;4789164;29;20419;-82
2023/09/04 01:56:25;;;;;;;4.03;3.63;;;;;;;15.32;100.00;100679.66;4789222;30;20092;-82
2023/09/04 01:58:51;;;;;;;3.50;3.20;;;;;;;15.54;100.00;100717.03;4789112;30;20035;-82
2023/09/04 02:01:16;;;;;;;5.05;3.55;;;;;;;15.54;100.00;100716.19;4789070;29;20479;-82
2023/09/04 02:03:54;;;;;;;5.82;3.78;;;;;;;15.40;100.00;100694.09;4789330;29;20047;-82
2023/09/04 02:06:19;;;;;;;6.32;4.00;;;;;;;15.19;100.00;100661.91;4772940;30;20039;-82
2023/09/04 02:08:45;;;;;;;4.13;3.72;;;;;;;15.28;100.00;100686.81;4788865;29;20086;-82
2023/09/04 02:11:10;;;;;;;4.35;3.95;;;;;;;15.35;100.00;100706.59;4773211;30;20081;-82
2023/09/04 02:13:36;;;;;;;4.55;3.75;;;;;;;15.06;100.00;100655.56;4789238;30;20051;-82
2023/09/04 02:16:01;;;;;;;5.20;3.83;;;;;;;15.29;100.00;100706.91;4772528;30;20115;-82
2023/09/04 02:18:27;;;;;;;5.28;3.63;;;;;;;15.10;100.00;100680.72;4773142;30;20501;-82
2023/09/04 02:20:52;;;;;;;4.53;4.07;;;;;;;15.09;100.00;100675.56;4788896;30;20037;-82
2023/09/04 02:23:18;;;;;;;4.40;3.75;;;;;;;15.15;100.00;100683.97;4788708;30;20114;-82
2023/09/04 02:25:46;;;;;;;5.93;4.10;;;;;;;15.07;100.00;100674.75;4788868;30;20055;-82
2023/09/04 02:28:11;;;;;;;4.65;3.92;;;;;;;14.94;100.00;100658.78;4771428;30;20031;-82
2023/09/04 02:30:37;;;;;;;5.85;4.38;;;;;;;15.29;100.00;100712.16;4788821;30;20038;-82
2023/09/04 02:33:03;;;;;;;6.35;4.15;;;;;;;14.91;100.00;100648.41;4788679;29;20031;-82
2023/09/04 02:35:28;;;;;;;4.57;3.83;;;;;;;15.05;100.00;100671.38;4788710;30;20038;-82
2023/09/04 02:37:54;;;;;;;6.22;4.15;;;;;;;15.11;100.00;100685.03;4788495;29;20367;-82
2023/09/04 02:40:19;;;;;;;4.63;4.15;;;;;;;15.16;100.00;100698.78;4788904;29;20067;-82
2023/09/04 02:42:44;;;;;;;4.97;3.97;;;;;;;15.10;100.00;100698.25;4788741;29;20493;-82
2023/09/04 02:45:10;;;;;;;4.80;3.63;;;;;;;14.86;100.00;100667.00;4772278;30;20478;-82
2023/09/04 02:47:38;;;;;;;4.82;3.85;;;;;;;14.89;100.00;100668.66;4788612;29;20032;-82
2023/09/04 02:50:05;;;;;;;5.00;4.50;;;;;;;15.14;100.00;100726.03;4788210;30;20032;-82
2023/09/04 02:52:31;;;;;;;5.55;4.32;;;;;;;14.69;100.00;100659.94;4788257;30;20031;-82
2023/09/04 02:54:57;;;;;;;6.15;4.40;;;;;;;14.82;100.00;100685.59;4788298;29;20092;-83
2023/09/04 02:57:23;;;;;;;4.85;4.32;;;;;;;15.01;100.00;100710.03;4787907;29;20168;-83
2023/09/04 02:59:48;;;;;;;4.97;3.92;;;;;;;15.03;100.00;100728.31;4772357;30;20080;-82
2023/09/04 03:02:14;;;;;;;4.97;4.00;;;;;;;15.13;100.00;100742.72;4788016;30;20524;-82
2023/09/04 03:04:40;;;;;;;4.90;4.35;;;;;;;14.84;100.00;100689.00;4788023;29;20039;-82
2023/09/04 03:07:06;;;;;;;5.63;4.97;;;;;;;15.13;100.00;100732.22;4788129;30;20038;-82
2023/09/04 03:09:31;;;;;;;5.35;4.25;;;;;;;15.09;100.00;100734.13;4788325;30;20031;-82
2023/09/04 03:11:58;;;;;;;5.03;4.25;;;;;;;15.15;100.00;100746.09;4788267;30;20027;-82
2023/09/04 03:14:24;;;;;;;4.38;3.97;;;;;;;15.12;100.00;100723.47;4787599;29;20035;-82
2023/09/04 03:16:49;;;;;;;5.03;4.50;;;;;;;14.85;100.00;100669.72;4787838;29;20390;-82
2023/09/04 03:19:14;;;;;;;7.18;4.35;;;;;;;14.98;100.00;100697.91;4787871;30;20085;-82
2023/09/04 03:21:40;;;;;;;7.07;4.18;;;;;;;14.94;100.00;100696.34;4787936;30;20112;-82
2023/09/04 03:24:05;;;;;;;5.43;4.35;;;;;;;14.90;100.00;100681.69;4787759;29;20028;-82
2023/09/04 03:26:31;;;;;;;5.93;4.40;;;;;;;15.19;100.00;100721.41;4787571;29;20405;-82
2023/09/04 03:28:56;;;;;;;5.03;4.53;;;;;;;14.89;100.00;100673.88;4787887;30;20042;-82
2023/09/04 03:31:21;;;;;;;4.75;4.32;;;;;;;15.16;100.00;100727.63;4771549;30;20047;-82
2023/09/04 03:33:47;;;;;;;7.72;4.32;;;;;;;15.07;100.00;100696.59;4787887;29;20062;-82
2023/09/04 03:36:12;;;;;;;6.35;4.40;;;;;;;15.42;100.00;100749.13;4787575;30;20037;-82
2023/09/04 03:38:39;;;;;;;6.80;4.40;;;;;;;15.01;100.00;100675.09;4787648;29;20466;-83
2023/09/04 03:41:04;;;;;;;5.18;3.92;;;;;;;15.30;100.00;100720.91;4771447;30;20047;-82
2023/09/04 03:43:29;;;;;;;5.20;4.43;;;;;;;15.11;100.00;100682.41;4787530;30;20043;-83
2023/09/04 03:45:55;;;;;;;7.72;5.30;;;;;;;15.17;100.00;100690.00;4787799;30;20043;-82
2023/09/04 03:48:20;;;;;;;7.80;4.30;;;;;;;15.37;100.00;100740.66;4771013;30;20039;-82
2023/09/04 03:50:45;;;;;;;4.07;3.67;;;;;;;15.33;100.00;100731.22;4787154;30;20375;-83
2023/09/04 03:53:11;;;;;;;5.25;3.85;;;;;;;15.08;100.00;100684.31;4787080;29;20460;-82
2023/09/04 03:55:37;;;;;;;4.72;4.28;;;;;;;15.21;100.00;100698.53;4771323;30;20023;-83
2023/09/04 03:58:03;;;;;;;6.60;4.28;;;;;;;15.27;100.00;100710.53;4771117;30;20043;-82
2023/09/04 04:00:30;;;;;;;5.47;4.28;;;;;;;15.08;100.00;100673.84;4786859;30;20478;-83
2023/09/04 04:02:55;;;;;;;4.00;3.58;;;;;;;15.09;100.00;100679.03;4787243;30;20033;-83
2023/09/04 04:05:20;;;;;;;5.25;4.57;;;;;;;15.34;100.00;100714.56;4786890;30;20027;-83
2023/09/04 04:07:46;;;;;;;5.07;3.72;;;;;;;15.34;100.00;100715.41;4770741;30;20063;-82
2023/09/04 04:10:11;;;;;;;5.75;4.57;;;;;;;14.99;100.00;100662.03;4787090;29;20035;-82
2023/09/04 04:12:37;;;;;;;7.07;4.50;;;;;;;15.32;100.00;100716.41;4787067;30;20058;-82
2023/09/04 04:15:06;;;;;;;5.57;4.47;;;;;;;15.51;100.00;100747.88;4787012;30;20030;-83
2023/09/04 04:17:32;;;;;;;6.28;5.53;;;;;;;15.21;100.00;100704.66;4786696;30;20033;-83
2023/09/04 04:19:57;;;;;;;6.30;4.63;;;;;;;15.30;100.00;100715.66;4786909;30;20035;-83
2023/09/04 04:22:23;;;;;;;5.05;4.55;;;;;;;15.26;100.00;100727.22;4786551;30;20039;-82
2023/09/04 04:24:52;;;;;;;5.68;4.75;;;;;;;15.25;100.00;100728.97;4786851;30;20138;-83
2023/09/04 04:27:17;;;;;;;5.60;4.78;;;;;;;15.54;100.00;100779.19;4786691;30;20114;-83
2023/09/04 04:29:45;;;;;;;5.90;4.85;;;;;;;15.23;100.00;100741.31;4786607;30;20399;-82
2023/09/04 04:32:11;;;;;;;5.45;4.68;;;;;;;15.46;100.00;100777.81;4786709;30;20035;-82
2023/09/04 04:34:36;;;;;;;8.07;5.13;;;;;;;15.13;100.00;100727.81;4786233;30;20092;-82
2023/09/04 04:37:02;;;;;;;10.02;6.03;;;;;;;15.39;100.00;100780.81;4786942;29;20023;-83
2023/09/04 04:39:27;;;;;;;7.65;4.93;;;;;;;15.51;100.00;100798.59;4786612;29;20119;-83
2023/09/04 04:41:53;;;;;;;9.65;5.65;;;;;;;15.21;100.00;100751.03;4786872;29;20031;-82
2023/09/04 04:44:18;;;;;;;5.85;4.28;;;;;;;15.45;100.00;100807.59;4786556;29;20039;-82
2023/09/04 04:46:46;;;;;;;6.65;4.43;;;;;;;15.47;100.00;100813.66;4786599;30;20035;-82
2023/09/04 04:49:11;;;;;;;5.57;3.72;;;;;;;15.22;100.00;100771.97;4786331;30;20105;-82
2023/09/04 04:51:36;;;;;;;5.25;4.15;;;;;;;15.43;100.00;100801.59;4785986;29;20031;-82
2023/09/04 04:54:02;;;;;;;5.60;4.30;;;;;;;15.42;100.00;100793.78;4786875;30;20031;-82
2023/09/04 04:56:28;;;;;;;5.28;3.63;;;;;;;15.52;100.00;100808.16;4770268;30;20043;-82
2023/09/04 04:58:53;;;;;;;6.70;4.00;;;;;;;15.23;100.00;100757.06;4786579;30;20070;-82
2023/09/04 05:01:18;;;;;;;6.95;4.15;;;;;;;15.53;100.00;100811.63;4786412;30;20211;-82
2023/09/04 05:03:44;;;;;;;4.40;3.45;;;;;;;15.55;100.00;100808.03;4786653;30;20046;-82
2023/09/04 05:06:10;;;;;;;5.50;3.85;;;;;;;15.34;100.00;100764.44;4786922;30;20047;-82
2023/09/04 05:08:36;;;;;;;6.15;3.63;;;;;;;15.34;100.00;100772.31;4786295;30;20046;-82
2023/09/04 05:11:04;;;;;;;5.68;4.07;;;;;;;15.24;100.00;100727.28;4786686;30;20035;-82
2023/09/04 05:13:30;;;;;;;4.60;4.03;;;;;;;15.53;100.00;100772.25;4786378;30;20121;-82
2023/09/04 05:15:55;;;;;;;5.25;4.53;;;;;;;15.51;100.00;100759.22;4786351;30;20516;-82
2023/09/04 05:18:21;;;;;;;4.75;3.90;;;;;;;15.83;100.00;100822.44;4786127;29;20028;-82
2023/09/04 05:20:46;;;;;;;5.53;3.97;;;;;;;15.55;100.00;100758.13;4786437;30;20043;-82
2023/09/04 05:23:11;;;;;;;5.68;4.78;;;;;;;15.87;100.00;100795.94;4770391;30;20023;-82
2023/09/04 05:25:37;;;;;;;6.57;5.10;;;;;;;15.75;100.00;100766.81;4786318;29;20437;-82
2023/09/04 05:28:02;;;;;;;5.15;4.43;;;;;;;15.96;100.00;100792.00;4786642;29;20043;-82
2023/09/04 05:30:28;;;;;;;4.65;4.25;;;;;;;16.03;100.00;100803.06;4785932;30;20031;-82
2023/09/04 05:32:53;;;;;;;4.65;4.13;;;;;;;16.01;100.00;100792.59;4786224;30;20027;-82
2023/09/04 05:35:19;;;;;;;5.10;4.20;;;;;;;15.73;100.00;100734.53;4785988;30;21123;-82
2023/09/04 05:37:44;;;;;;;6.97;4.43;;;;;;;16.23;100.00;100797.63;4786103;30;20028;-82
2023/09/04 05:40:10;;;;;;;5.35;4.22;;;;;;;16.28;100.00;100785.09;4786668;30;20402;-82
2023/09/04 05:42:36;;;;;;;7.88;4.40;;;;;;;16.45;100.00;100786.84;4785893;29;20383;-82
2023/09/04 05:45:02;;;;;;;4.97;4.10;;;;;;;16.73;100.00;100819.59;4786249;30;20042;-81
2023/09/04 05:47:27;;;;;;;4.30;3.72;;;;;;;16.58;100.00;100761.59;4770047;30;20500;-82
2023/09/04 05:49:53;;;;;;;5.78;3.90;;;;;;;16.72;100.00;100747.66;4769906;30;20118;-82
2023/09/04 05:52:18;;;;;;;4.65;4.00;;;;;;;17.18;100.00;100785.50;4786204;30;20061;-82
2023/09/04 05:54:43;;;;;;;5.43;4.43;;;;;;;17.34;100.00;100774.94;4730526;30;20132;-82
2023/09/04 05:57:09;;;;;;;5.47;3.92;;;;;;;17.48;100.00;100760.97;4730555;30;20132;-82
2023/09/04 05:59:34;;;;;;;5.13;3.60;;;;;;;17.92;100.00;100805.03;4730279;30;20052;-82
2023/09/04 06:01:59;;;;;;;4.28;3.53;;;;;;;18.26;100.00;100816.19;4730618;30;20039;-82
2023/09/04 06:04:25;;;;;;;8.93;3.47;;;;;;;18.48;100.00;100790.22;4733321;30;20052;-82
2023/09/04 06:06:50;;;;;;;5.00;3.90;;;;;;;18.70;100.00;100805.59;4719036;30;20047;-82
2023/09/04 06:09:15;;;;;;;6.57;3.80;;;;;;;18.93;100.00;100812.94;4733727;30;20135;-82
2023/09/04 06:11:41;;;;;;;5.00;3.50;;;;;;;18.78;99.05;100762.91;4733690;30;20033;-82
2023/09/04 06:14:06;;;;;;;4.82;3.55;;;;;;;19.11;98.61;100800.34;4733506;30;20140;-82
2023/09/04 06:16:33;;;;;;;3.67;3.13;;;;;;;19.09;97.16;100780.28;4732979;30;20047;-82
2023/09/04 06:18:58;;;;;;;5.38;3.35;;;;;;;19.01;96.55;100746.44;4733259;30;20127;-82
2023/09/04 06:21:23;;;;;;;7.32;2.90;;;;;;;19.35;95.42;100791.81;4733239;30;20120;-82
2023/09/04 06:23:48;;;;;;;3.30;2.88;;;;;;;19.32;95.50;100784.91;4733407;30;20131;-82
2023/09/04 06:26:14;;;;;;;4.10;2.90;;;;;;;19.34;94.95;100771.59;4762102;30;20168;-82
2023/09/04 06:28:40;;;;;;;4.40;2.95;;;;;;;19.62;94.66;100819.09;4772315;30;20110;-82
2023/09/04 06:31:05;;;;;;;6.55;3.40;;;;;;;19.71;94.13;100835.28;4788781;30;20054;-82
2023/09/04 06:33:34;;;;;;;4.95;3.15;;;;;;;19.36;93.68;100789.06;4788518;30;20031;-82
2023/09/04 06:35:59;;;;;;;3.47;2.78;;;;;;;19.55;94.46;100828.34;4788850;30;20042;-82
2023/09/04 06:38:25;;;;;;;6.35;2.90;;;;;;;19.55;94.32;100819.56;4788593;30;20035;-82
2023/09/04 06:40:57;;;;;;;3.17;2.65;;;;;;;19.64;93.24;100827.78;4788077;29;20038;-82
2023/09/04 06:43:27;;;;;;;3.45;3.15;;;;;;;19.74;93.24;100832.44;4772363;30;20039;-82
2023/09/04 06:45:52;;;;;;;3.50;2.88;;;;;;;19.87;92.70;100841.25;4762774;30;20430;-82
2023/09/04 06:48:17;;;;;;;3.15;2.85;;;;;;;19.98;92.17;100837.91;4770747;30;20105;-82
2023/09/04 06:50:43;;;;;;;5.78;2.95;;;;;;;20.02;91.92;100791.81;4754432;30;20032;-82
2023/09/04 06:53:08;;;;;;;3.40;2.70;;;;;;;20.73;90.71;100824.81;4770991;30;20035;-82
2023/09/04 06:55:33;;;;;;;3.88;2.92;;;;;;;20.88;88.78;100762.84;4754301;30;20390;-82
2023/09/04 06:57:59;;;;;;;4.70;2.80;;;;;;;21.72;87.24;100835.38;4770445;30;20062;-82
2023/09/04 07:00:25;;;;;;;5.93;2.65;;;;;;;21.93;84.60;100809.88;4754275;30;20505;-82
2023/09/04 07:02:50;;;;;;;5.03;2.97;;;;;;;22.17;82.90;100821.31;4770195;30;20060;-82
2023/09/04 07:05:17;;;;;;;2.97;2.75;;;;;;;22.09;82.18;100834.28;4770387;30;20031;-82
2023/09/04 07:07:42;;;;;;;4.20;3.00;;;;;;;22.07;83.33;100843.31;4770191;30;20058;-82
2023/09/04 07:10:08;;;;;;;3.08;2.78;;;;;;;22.14;83.69;100842.78;4770420;30;20518;-82
2023/09/04 07:12:37;;;;;;;4.30;2.95;;;;;;;22.20;82.47;100835.31;4769904;30;20123;-82
2023/09/04 07:15:03;;;;;;;3.88;3.00;;;;;;;22.37;82.40;100841.00;4769050;30;20031;-82
2023/09/04 07:17:28;;;;;;;3.85;2.58;;;;;;;22.28;82.07;100801.06;4754005;30;20031;-83
2023/09/04 07:19:54;;;;;;;3.33;2.80;;;;;;;22.87;82.74;100816.75;4770228;30;20028;-83
2023/09/04 07:22:19;;;;;;;5.00;2.60;;;;;;;23.38;80.50;100843.63;4770173;30;20036;-83
2023/09/04 07:24:45;;;;;;;7.13;2.97;;;;;;;23.83;78.88;100798.28;4770088;30;20055;-83
2023/09/04 07:27:10;;;;;;;7.20;2.80;;;;;;;24.57;76.16;100845.31;4769890;30;20398;-83
2023/09/04 07:29:36;;;;;;;4.18;3.13;;;;;;;25.24;74.48;100839.41;4769675;30;20379;-83
2023/09/04 07:32:02;;;;;;;4.78;2.88;;;;;;;25.77;74.94;100847.06;4769626;30;20035;-83
2023/09/04 07:34:28;;;;;;;3.90;2.38;;;;;;;26.33;72.36;100842.78;4769799;30;20035;-83
2023/09/04 07:36:54;;;;;;;5.22;2.95;;;;;;;26.81;70.33;100831.13;4769806;30;20031;-83
2023/09/04 07:39:19;;;;;;;3.55;2.75;;;;;;;27.23;68.68;100830.66;4770162;30;20474;-83
2023/09/04 07:41:44;;;;;;;3.00;2.65;;;;;;;27.40;68.44;100783.50;4769896;30;20032;-83
2023/09/04 07:44:09;;;;;;;2.40;2.20;;;;;;;28.00;67.18;100813.13;4753636;30;20110;-83
2023/09/04 07:46:35;;;;;;;3.88;2.50;;;;;;;28.95;65.86;100819.38;4769378;30;20035;-83
2023/09/04 07:49:00;;;;;;;5.00;2.53;;;;;;;29.00;63.76;100811.72;4770045;30;20036;-83
2023/09/04 07:51:26;;;;;;;4.60;2.80;;;;;;;28.12;64.36;100803.03;4769735;30;20032;-83
2023/09/04 07:53:51;;;;;;;3.88;2.05;;;;;;;28.05;65.54;100821.53;4769702;30;20032;-83
2023/09/04 07:56:16;;;;;;;6.10;3.15;;;;;;;27.94;65.58;100769.09;4776546;30;20120;-83
2023/09/04 07:58:43;;;;;;;4.57;2.90;;;;;;;28.07;65.38;100833.78;4770694;30;20035;-83
2023/09/04 08:01:13;;;;;;;3.75;2.50;;;;;;;27.61;67.44;100829.53;4787404;29;20027;-83
2023/09/04 08:03:39;;;;;;;8.05;2.88;;;;;;;27.22;68.39;100850.34;4787284;30;20035;-84
2023/09/04 08:06:05;;;;;;;4.65;2.53;;;;;;;26.63;69.19;100833.72;4770868;30;20031;-83
2023/09/04 08:08:30;;;;;;;8.77;3.45;;;;;;;25.91;70.48;100804.91;4770542;30;20038;-83
2023/09/04 08:10:55;;;;;;;3.90;2.35;;;;;;;25.68;71.83;100837.22;4766561;30;20036;-83
2023/09/04 08:13:21;;;;;;;3.45;2.50;;;;;;;24.93;72.06;100798.59;4767088;30;20079;-83
2023/09/04 08:15:46;;;;;;;3.40;2.80;;;;;;;24.63;73.31;100863.41;4766510;30;20076;-83
2023/09/04 08:18:12;;;;;;;7.32;2.70;;;;;;;24.24;73.87;100857.00;4766729;30;20068;-83
2023/09/04 08:20:38;;;;;;;6.75;2.92;;;;;;;23.68;76.03;100844.78;4766286;30;20044;-82
2023/09/04 08:23:04;;;;;;;3.72;2.90;;;;;;;23.47;77.93;100854.50;4766818;30;20035;-83
2023/09/04 08:25:30;;;;;;;3.97;2.50;;;;;;;23.04;78.54;100836.72;4760564;30;20056;-83
2023/09/04 08:27:56;;;;;;;4.93;2.70;;;;;;;23.01;79.96;100867.03;4760115;30;20039;-83
2023/09/04 08:30:21;;;;;;;4.35;2.65;;;;;;;22.80;80.47;100834.19;4755407;30;20044;-83
2023/09/04 08:32:47;;;;;;;2.75;2.05;;;;;;;23.01;79.75;100872.34;4756778;30;20031;-83
2023/09/04 08:35:12;;;;;;;4.20;2.53;;;;;;;22.85;80.76;100819.56;4756737;30;20099;-83
2023/09/04 08:37:38;;;;;;;3.65;2.65;;;;;;;23.16;80.30;100863.16;4755410;30;20101;-83
2023/09/04 08:40:05;;;;;;;3.70;2.47;;;;;;;22.62;78.52;100828.47;4750845;30;20080;-83
2023/09/04 08:42:31;;;;;;;3.50;2.50;;;;;;;21.71;80.22;100709.06;4763108;30;20043;-83
2023/09/04 08:44:57;;;;;;;5.32;3.20;;;;;;;22.49;81.92;100852.50;4780979;30;20047;-83
2023/09/04 08:47:23;;;;;;;4.43;2.53;;;;;;;22.72;82.23;100865.81;4777328;29;20039;-83
2023/09/04 08:49:50;;;;;;;4.22;2.47;;;;;;;22.44;82.29;100814.84;4776627;30;20043;-82
2023/09/04 08:52:15;;;;;;;5.85;2.63;;;;;;;22.24;80.71;100787.19;4760902;30;20127;-83
2023/09/04 08:54:41;;;;;;;3.55;2.75;;;;;;;22.61;80.22;100853.34;4780180;30;20118;-83
2023/09/04 08:57:08;;;;;;;3.50;2.47;;;;;;;22.34;80.21;100828.00;4769863;30;20031;-83
2023/09/04 08:59:34;;;;;;;5.05;3.53;;;;;;;22.37;81.40;100841.00;4786484;30;20108;-83
2023/09/04 09:02:04;;;;;;;3.22;2.53;;;;;;;22.28;82.88;100817.00;4786423;30;20035;-83
2023/09/04 09:04:31;;;;;;;3.17;2.53;;;;;;;22.30;83.28;100815.06;4786193;30;20078;-83
2023/09/04 09:06:57;;;;;;;4.22;2.67;;;;;;;22.43;83.72;100837.03;4786574;30;20027;-83
2023/09/04 09:09:23;;;;;;;3.60;2.72;;;;;;;22.27;82.85;100817.97;4786430;30;20393;-84
2023/09/04 09:11:54;;;;;;;5.90;2.50;;;;;;;22.15;83.97;100807.31;4770149;30;20028;-83
2023/09/04 09:14:21;;;;;;;2.20;2.00;;;;;;;22.25;83.97;100827.81;4763317;30;20039;-83
2023/09/04 09:16:46;;;;;;;5.88;2.65;;;;;;;22.45;82.50;100856.34;4786098;30;20390;-83
2023/09/04 09:19:13;;;;;;;3.22;2.35;;;;;;;22.28;80.61;100833.75;4786426;30;20043;-83
2023/09/04 09:21:39;;;;;;;4.18;2.60;;;;;;;22.43;80.86;100860.94;4786236;30;20428;-83
2023/09/04 09:24:13;;;;;;;4.43;3.00;;;;;;;22.25;81.09;100849.06;4770147;30;20035;-83
2023/09/04 09:26:41;;;;;;;3.38;2.75;;;;;;;21.98;82.00;100844.88;4785910;30;20355;-83
2023/09/04 09:29:08;;;;;;;3.90;2.67;;;;;;;21.73;83.83;100805.22;4786217;30;20535;-83
2023/09/04 09:31:35;;;;;;;4.72;2.67;;;;;;;21.95;81.69;100823.03;4786321;30;20032;-83
2023/09/04 09:34:01;;;;;;;4.53;2.58;;;;;;;22.12;81.54;100842.06;4786110;30;20040;-83
2023/09/04 09:36:27;;;;;;;4.85;2.75;;;;;;;21.98;79.80;100815.69;4786238;29;20027;-83
2023/09/04 09:38:54;;;;;;;4.40;2.38;;;;;;;22.20;79.73;100852.06;4788866;30;20039;-83
2023/09/04 09:41:19;;;;;;;4.32;2.47;;;;;;;22.08;80.54;100848.53;4789737;30;20058;-83
2023/09/04 09:43:44;;;;;;;3.05;2.75;;;;;;;21.85;79.95;100820.22;4789566;30;20063;-83
2023/09/04 09:46:10;;;;;;;3.05;2.60;;;;;;;21.70;80.43;100794.84;4789460;30;20039;-82
2023/09/04 09:48:36;;;;;;;3.05;2.55;;;;;;;21.92;80.84;100834.72;4789284;30;20063;-83
2023/09/04 09:51:06;;;;;;;2.45;2.25;;;;;;;22.08;83.46;100845.00;4789493;30;20110;-83
2023/09/04 09:54:00;;;;;;;2.97;2.63;;;;;;;22.17;84.45;100850.50;4789392;30;20107;-83
2023/09/04 09:56:27;;;;;;;3.15;2.47;;;;;;;22.18;82.89;100838.09;4716388;30;20049;-83
2023/09/04 09:58:53;;;;;;;3.92;2.35;;;;;;;21.88;82.11;100785.53;4716061;30;20119;-83
2023/09/04 10:01:18;;;;;;;3.90;3.05;;;;;;;22.02;82.50;100787.97;4716427;30;20124;-83
2023/09/04 10:03:46;;;;;;;3.42;2.28;;;;;;;22.07;81.57;100792.91;4715932;30;20072;-83
2023/09/04 10:06:17;;;;;;;3.50;2.60;;;;;;;22.16;79.85;100803.72;4715842;30;20145;-84
2023/09/04 10:08:44;;;;;;;2.58;2.35;;;;;;;22.11;79.26;100820.91;4715834;30;20037;-83
2023/09/04 10:11:15;;;;;;;2.85;2.40;;;;;;;22.04;81.05;100833.81;4716285;30;20499;-83
2023/09/04 10:13:55;;;;;;;3.40;2.53;;;;;;;22.02;80.70;100840.19;4715823;30;20091;-83
2023/09/04 10:16:39;;;;;;;6.10;2.92;;;;;;;21.96;80.28;100840.66;4715992;30;20048;-83
2023/09/04 10:19:07;;;;;;;4.13;3.08;;;;;;;21.59;81.32;100788.56;4716282;30;20052;-83
2023/09/04 10:21:34;;;;;;;3.25;2.53;;;;;;;21.87;81.92;100835.06;4715732;30;20531;-83
2023/09/04 10:24:02;;;;;;;4.28;2.10;;;;;;;21.97;80.84;100839.69;4715781;30;20041;-83
2023/09/04 10:26:36;;;;;;;3.15;2.53;;;;;;;21.72;81.24;100795.59;4715719;30;20053;-83
2023/09/04 10:29:04;;;;;;;2.63;2.10;;;;;;;21.99;79.52;100843.91;4715869;30;20075;-83
2023/09/04 10:31:33;;;;;;;2.58;2.38;;;;;;;21.98;79.30;100833.41;4715273;30;20443;-83
2023/09/04 10:34:00;;;;;;;4.63;2.65;;;;;;;21.94;79.40;100846.06;4770549;30;20054;-83
2023/09/04 10:36:28;;;;;;;4.00;2.60;;;;;;;21.90;80.19;100821.56;4788801;30;20023;-83
2023/09/04 10:38:55;;;;;;;3.45;2.80;;;;;;;22.06;82.15;100817.75;4788592;30;20390;-83
2023/09/04 10:41:21;;;;;;;3.20;2.83;;;;;;;22.25;81.56;100815.44;4788549;30;20039;-83
2023/09/04 10:43:46;;;;;;;5.97;2.65;;;;;;;22.53;79.69;100832.69;4788645;30;20039;-83
2023/09/04 10:46:13;;;;;;;4.00;2.58;;;;;;;22.32;79.73;100781.28;4788788;29;20054;-83
2023/09/04 10:48:46;;;;;;;4.75;2.88;;;;;;;22.17;77.90;100775.38;4787715;29;20072;-84
2023/09/04 10:51:27;;;;;;;3.72;2.53;;;;;;;22.39;79.60;100823.16;4788388;30;20042;-83
2023/09/04 10:53:53;;;;;;;;;;;;;;;22.49;80.68;100817.13;4788567;30;20476;-84
2023/09/04 10:56:18;;;;;;;4.25;2.55;;;;;;;22.41;79.32;100797.31;4772582;30;19949;-83
2023/09/04 10:59:00;;;;;;;2.78;2.38;;;;;;;22.61;78.53;100821.47;4788086;30;20035;-83
2023/09/04 11:01:36;;;;;;;3.35;2.33;;;;;;;22.19;75.37;100796.47;4788507;30;20092;-83
2023/09/04 11:04:04;;;;;;;5.22;3.33;;;;;;;22.20;77.94;100806.13;4771715;30;20059;-83
2023/09/04 11:06:36;;;;;;;2.83;2.53;;;;;;;21.83;79.63;100735.47;4773376;30;20040;-83
2023/09/04 11:09:03;;;;;;;4.07;2.97;;;;;;;22.47;76.55;100816.41;4756974;30;20040;-83
2023/09/04 11:11:29;;;;;;;3.97;2.65;;;;;;;22.55;77.32;100817.50;4757371;30;20098;-83
2023/09/04 11:14:00;;;;;;;2.58;2.35;;;;;;;22.41;75.04;100775.25;4758308;30;20450;-83
2023/09/04 11:16:28;;;;;;;4.20;2.53;;;;;;;22.51;73.99;100808.09;4765175;30;20075;-83
2023/09/04 11:19:02;;;;;;;2.63;2.40;;;;;;;22.37;74.49;100798.53;4764609;30;20055;-83